sensor_id;sensor_type;location;lat;lon;timestamp;pressure;altitude;pressure_sealevel;temperature;humidity
73453;BME280;61687;56.232;43.854;2023-04-05T00:01:45;100818.63;;;9.59;59.56
73453;BME280;61687;56.232;43.854;2023-04-05T00:04:15;100819.69;;;9.42;59.74
73453;BME280;61687;56.232;43.854;2023-04-05T00:06:46;100824.31;;;9.26;59.80
73453;BME280;61687;56.232;43.854;2023-04-05T00:09:17;100824.31;;;9.13;60.24
73453;BME280;61687;56.232;43.854;2023-04-05T00:11:44;100819.44;;;9.07;60.23
73453;BME280;61687;56.232;43.854;2023-04-05T00:14:10;100816.94;;;9.01;60.50
73453;BME280;61687;56.232;43.854;2023-04-05T00:16:36;100826.41;;;8.92;60.70
73453;BME280;61687;56.232;43.854;2023-04-05T00:19:02;100817.31;;;8.87;60.87
73453;BME280;61687;56.232;43.854;2023-04-05T00:21:28;100819.59;;;8.85;60.85
73453;BME280;61687;56.232;43.854;2023-04-05T00:23:55;100820.50;;;8.77;60.99
73453;BME280;61687;56.232;43.854;2023-04-05T00:26:25;100813.09;;;8.78;60.87
73453;BME280;61687;56.232;43.854;2023-04-05T00:28:55;100821.19;;;8.74;61.18
73453;BME280;61687;56.232;43.854;2023-04-05T00:31:21;100814.47;;;8.71;61.31
73453;BME280;61687;56.232;43.854;2023-04-05T00:33:47;100815.72;;;8.62;61.61
73453;BME280;61687;56.232;43.854;2023-04-05T00:36:18;100824.13;;;8.56;61.68
73453;BME280;61687;56.232;43.854;2023-04-05T00:38:46;100821.38;;;8.44;61.93
73453;BME280;61687;56.232;43.854;2023-04-05T00:41:12;100822.63;;;8.34;62.23
73453;BME280;61687;56.232;43.854;2023-04-05T00:43:39;100826.03;;;8.31;62.48
73453;BME280;61687;56.232;43.854;2023-04-05T00:46:06;100828.63;;;8.27;62.57
73453;BME280;61687;56.232;43.854;2023-04-05T00:48:33;100825.78;;;8.24;62.58
73453;BME280;61687;56.232;43.854;2023-04-05T00:51:00;100818.94;;;8.18;62.83
73453;BME280;61687;56.232;43.854;2023-04-05T00:53:26;100812.22;;;8.15;62.92
73453;BME280;61687;56.232;43.854;2023-04-05T00:55:53;100814.03;;;8.11;62.98
73453;BME280;61687;56.232;43.854;2023-04-05T00:58:20;100818.44;;;8.03;63.50
73453;BME280;61687;56.232;43.854;2023-04-05T01:01:07;100816.63;;;7.95;63.82
73453;BME280;61687;56.232;43.854;2023-04-05T01:03:42;100819.22;;;7.91;63.71
73453;BME280;61687;56.232;43.854;2023-04-05T01:06:19;100818.06;;;7.92;63.81
73453;BME280;61687;56.232;43.854;2023-04-05T01:08:58;100832.06;;;7.91;63.94
73453;BME280;61687;56.232;43.854;2023-04-05T01:11:25;100829.66;;;7.89;63.75
73453;BME280;61687;56.232;43.854;2023-04-05T01:13:58;100823.50;;;7.80;64.08
73453;BME280;61687;56.232;43.854;2023-04-05T01:16:24;100813.00;;;7.69;64.35
73453;BME280;61687;56.232;43.854;2023-04-05T01:18:52;100821.72;;;7.63;64.54
73453;BME280;61687;56.232;43.854;2023-04-05T01:27:13;100836.25;;;7.54;64.53
73453;BME280;61687;56.232;43.854;2023-04-05T01:32:33;100827.88;;;7.38;65.07
73453;BME280;61687;56.232;43.854;2023-04-05T01:35:21;100832.41;;;7.34;64.98
73453;BME280;61687;56.232;43.854;2023-04-05T01:37:58;100830.66;;;7.29;65.40
73453;BME280;61687;56.232;43.854;2023-04-05T01:40:26;100839.97;;;7.28;65.51
73453;BME280;61687;56.232;43.854;2023-04-05T01:42:52;100832.91;;;7.27;65.43
73453;BME280;61687;56.232;43.854;2023-04-05T01:45:18;100835.28;;;7.29;65.54
73453;BME280;61687;56.232;43.854;2023-04-05T01:47:44;100837.56;;;7.27;65.61
73453;BME280;61687;56.232;43.854;2023-04-05T01:50:10;100839.97;;;7.28;65.58
73453;BME280;61687;56.232;43.854;2023-04-05T01:52:35;100839.81;;;7.25;65.54
73453;BME280;61687;56.232;43.854;2023-04-05T01:55:01;100840.63;;;7.25;65.78
73453;BME280;61687;56.232;43.854;2023-04-05T01:57:28;100834.56;;;7.20;65.74
73453;BME280;61687;56.232;43.854;2023-04-05T01:59:54;100841.00;;;7.15;65.93
73453;BME280;61687;56.232;43.854;2023-04-05T02:02:20;100849.34;;;7.19;66.11
73453;BME280;61687;56.232;43.854;2023-04-05T02:04:47;100850.94;;;7.20;66.20
73453;BME280;61687;56.232;43.854;2023-04-05T02:07:13;100848.66;;;7.22;66.06
73453;BME280;61687;56.232;43.854;2023-04-05T02:09:40;100850.59;;;7.21;65.97
73453;BME280;61687;56.232;43.854;2023-04-05T02:12:06;100854.94;;;7.22;66.03
73453;BME280;61687;56.232;43.854;2023-04-05T02:14:32;100857.31;;;7.24;65.98
73453;BME280;61687;56.232;43.854;2023-04-05T02:16:57;100855.41;;;7.24;65.97
73453;BME280;61687;56.232;43.854;2023-04-05T02:19:27;100850.53;;;7.30;65.82
73453;BME280;61687;56.232;43.854;2023-04-05T02:21:56;100856.44;;;7.32;65.76
73453;BME280;61687;56.232;43.854;2023-04-05T02:24:22;100865.13;;;7.34;65.72
73453;BME280;61687;56.232;43.854;2023-04-05T02:26:48;100866.97;;;7.42;65.72
73453;BME280;61687;56.232;43.854;2023-04-05T02:29:14;100863.25;;;7.47;65.71
73453;BME280;61687;56.232;43.854;2023-04-05T02:31:41;100862.13;;;7.48;65.57
73453;BME280;61687;56.232;43.854;2023-04-05T02:34:07;100859.72;;;7.47;65.79
73453;BME280;61687;56.232;43.854;2023-04-05T02:36:36;100862.31;;;7.43;65.77
73453;BME280;61687;56.232;43.854;2023-04-05T02:39:02;100862.91;;;7.49;65.85
73453;BME280;61687;56.232;43.854;2023-04-05T02:41:29;100857.59;;;7.52;65.83
73453;BME280;61687;56.232;43.854;2023-04-05T02:43:55;100858.06;;;7.54;66.04
73453;BME280;61687;56.232;43.854;2023-04-05T02:46:21;100860.56;;;7.59;65.87
73453;BME280;61687;56.232;43.854;2023-04-05T02:48:46;100855.41;;;7.67;65.78
73453;BME280;61687;56.232;43.854;2023-04-05T02:51:14;100858.53;;;7.78;65.57
73453;BME280;61687;56.232;43.854;2023-04-05T02:53:41;100862.16;;;7.82;65.39
73453;BME280;61687;56.232;43.854;2023-04-05T02:56:11;100856.72;;;7.82;65.39
73453;BME280;61687;56.232;43.854;2023-04-05T02:58:41;100869.53;;;7.81;65.49
73453;BME280;61687;56.232;43.854;2023-04-05T03:01:08;100874.44;;;7.76;65.63
73453;BME280;61687;56.232;43.854;2023-04-05T03:03:34;100876.66;;;7.73;65.33
73453;BME280;61687;56.232;43.854;2023-04-05T03:06:04;100878.41;;;7.78;65.29
73453;BME280;61687;56.232;43.854;2023-04-05T03:08:41;100885.25;;;7.84;65.20
73453;BME280;61687;56.232;43.854;2023-04-05T03:11:13;100883.25;;;7.94;65.29
73453;BME280;61687;56.232;43.854;2023-04-05T03:13:44;100882.34;;;8.02;65.39
73453;BME280;61687;56.232;43.854;2023-04-05T03:16:17;100885.81;;;8.11;65.28
73453;BME280;61687;56.232;43.854;2023-04-05T03:18:44;100890.75;;;8.18;65.38
73453;BME280;61687;56.232;43.854;2023-04-05T03:21:11;100885.75;;;8.20;65.31
73453;BME280;61687;56.232;43.854;2023-04-05T03:23:44;100891.44;;;8.27;65.44
73453;BME280;61687;56.232;43.854;2023-04-05T03:26:14;100897.94;;;8.35;65.02
73453;BME280;61687;56.232;43.854;2023-04-05T03:28:45;100897.59;;;8.37;64.65
73453;BME280;61687;56.232;43.854;2023-04-05T03:31:12;100897.59;;;8.37;64.35
73453;BME280;61687;56.232;43.854;2023-04-05T03:33:38;100905.00;;;8.36;63.98
73453;BME280;61687;56.232;43.854;2023-04-05T03:36:04;100900.97;;;8.21;63.99
73453;BME280;61687;56.232;43.854;2023-04-05T03:38:34;100906.53;;;8.25;64.07
73453;BME280;61687;56.232;43.854;2023-04-05T03:41:17;100900.97;;;8.21;63.89
73453;BME280;61687;56.232;43.854;2023-04-05T03:43:43;100904.63;;;8.25;63.80
73453;BME280;61687;56.232;43.854;2023-04-05T03:46:09;100908.16;;;8.26;64.06
73453;BME280;61687;56.232;43.854;2023-04-05T03:48:35;100894.84;;;8.37;63.53
73453;BME280;61687;56.232;43.854;2023-04-05T03:51:01;100904.56;;;8.47;63.30
73453;BME280;61687;56.232;43.854;2023-04-05T03:53:27;100906.22;;;8.60;62.97
73453;BME280;61687;56.232;43.854;2023-04-05T03:55:55;100906.13;;;8.69;62.42
73453;BME280;61687;56.232;43.854;2023-04-05T03:58:47;100914.53;;;8.76;62.43
73453;BME280;61687;56.232;43.854;2023-04-05T04:01:14;100909.78;;;8.85;62.34
73453;BME280;61687;56.232;43.854;2023-04-05T04:03:40;100910.47;;;8.95;62.18
73453;BME280;61687;56.232;43.854;2023-04-05T04:06:06;100910.72;;;9.02;61.72
73453;BME280;61687;56.232;43.854;2023-04-05T04:08:32;100918.69;;;9.07;61.42
73453;BME280;61687;56.232;43.854;2023-04-05T04:10:59;100914.47;;;8.97;61.40
73453;BME280;61687;56.232;43.854;2023-04-05T04:13:34;100914.69;;;9.05;61.31
73453;BME280;61687;56.232;43.854;2023-04-05T04:16:06;100921.75;;;9.06;61.14
73453;BME280;61687;56.232;43.854;2023-04-05T04:18:50;100923.25;;;9.03;61.29
73453;BME280;61687;56.232;43.854;2023-04-05T04:21:37;100925.38;;;9.10;60.99
73453;BME280;61687;56.232;43.854;2023-04-05T04:24:16;100916.03;;;9.11;60.79
73453;BME280;61687;56.232;43.854;2023-04-05T04:26:59;100917.63;;;9.12;60.98
73453;BME280;61687;56.232;43.854;2023-04-05T04:30:00;100934.53;;;9.14;60.84
73453;BME280;61687;56.232;43.854;2023-04-05T04:32:48;100927.53;;;9.16;60.65
73453;BME280;61687;56.232;43.854;2023-04-05T04:35:36;100927.44;;;9.13;60.80
73453;BME280;61687;56.232;43.854;2023-04-05T04:38:15;100923.66;;;9.18;60.67
73453;BME280;61687;56.232;43.854;2023-04-05T04:41:09;100933.34;;;9.27;60.47
73453;BME280;61687;56.232;43.854;2023-04-05T04:43:45;100926.97;;;9.36;60.49
73453;BME280;61687;56.232;43.854;2023-04-05T04:46:33;100928.91;;;9.48;60.09
73453;BME280;61687;56.232;43.854;2023-04-05T04:49:12;100930.25;;;9.66;59.58
73453;BME280;61687;56.232;43.854;2023-04-05T04:51:44;100934.31;;;9.72;59.38
73453;BME280;61687;56.232;43.854;2023-04-05T04:54:11;100936.59;;;9.70;59.20
73453;BME280;61687;56.232;43.854;2023-04-05T04:56:37;100938.84;;;9.81;59.18
73453;BME280;61687;56.232;43.854;2023-04-05T04:59:03;100948.22;;;9.80;59.09
73453;BME280;61687;56.232;43.854;2023-04-05T05:01:29;100946.38;;;9.84;59.15
73453;BME280;61687;56.232;43.854;2023-04-05T05:03:56;100941.59;;;10.09;58.40
73453;BME280;61687;56.232;43.854;2023-04-05T05:06:28;100946.13;;;10.17;57.71
73453;BME280;61687;56.232;43.854;2023-04-05T05:08:54;100945.97;;;10.26;57.44
73453;BME280;61687;56.232;43.854;2023-04-05T05:11:21;100936.34;;;10.45;57.14
73453;BME280;61687;56.232;43.854;2023-04-05T05:13:47;100936.63;;;10.56;56.48
73453;BME280;61687;56.232;43.854;2023-04-05T05:16:18;100946.34;;;10.53;56.53
73453;BME280;61687;56.232;43.854;2023-04-05T05:18:46;100944.78;;;10.68;56.13
73453;BME280;61687;56.232;43.854;2023-04-05T05:21:13;100941.31;;;10.87;55.65
73453;BME280;61687;56.232;43.854;2023-04-05T05:23:38;100936.09;;;11.14;55.24
73453;BME280;61687;56.232;43.854;2023-04-05T05:26:04;100941.13;;;11.28;54.46
73453;BME280;61687;56.232;43.854;2023-04-05T05:28:31;100944.19;;;11.43;53.84
73453;BME280;61687;56.232;43.854;2023-04-05T05:30:56;100933.97;;;11.59;53.19
73453;BME280;61687;56.232;43.854;2023-04-05T05:33:22;100940.00;;;11.85;51.85
73453;BME280;61687;56.232;43.854;2023-04-05T05:35:50;100944.28;;;12.02;51.19
73453;BME280;61687;56.232;43.854;2023-04-05T05:38:16;100940.75;;;12.21;50.95
73453;BME280;61687;56.232;43.854;2023-04-05T05:40:43;100938.03;;;12.44;50.60
73453;BME280;61687;56.232;43.854;2023-04-05T05:43:09;100937.25;;;12.67;50.36
73453;BME280;61687;56.232;43.854;2023-04-05T05:45:36;100941.47;;;12.84;49.39
73453;BME280;61687;56.232;43.854;2023-04-05T05:48:02;100950.25;;;12.70;48.24
73453;BME280;61687;56.232;43.854;2023-04-05T05:50:27;100943.00;;;12.82;48.61
73453;BME280;61687;56.232;43.854;2023-04-05T05:52:58;100947.19;;;12.99;48.32
73453;BME280;61687;56.232;43.854;2023-04-05T05:55:24;100941.50;;;13.11;47.83
73453;BME280;61687;56.232;43.854;2023-04-05T05:57:51;100938.00;;;13.14;47.67
73453;BME280;61687;56.232;43.854;2023-04-05T06:00:18;100943.84;;;13.09;47.17
73453;BME280;61687;56.232;43.854;2023-04-05T06:02:44;100941.66;;;13.22;46.66
73453;BME280;61687;56.232;43.854;2023-04-05T06:05:11;100946.84;;;13.00;46.03
73453;BME280;61687;56.232;43.854;2023-04-05T06:07:37;100944.56;;;13.06;46.06
73453;BME280;61687;56.232;43.854;2023-04-05T06:10:04;100939.78;;;13.03;45.74
73453;BME280;61687;56.232;43.854;2023-04-05T06:12:31;100957.53;;;13.06;45.14
73453;BME280;61687;56.232;43.854;2023-04-05T06:14:57;100949.78;;;13.15;45.45
73453;BME280;61687;56.232;43.854;2023-04-05T06:17:23;100944.91;;;13.28;45.23
73453;BME280;61687;56.232;43.854;2023-04-05T06:19:49;100949.00;;;13.38;45.20
73453;BME280;61687;56.232;43.854;2023-04-05T06:22:14;100960.47;;;13.43;44.89
73453;BME280;61687;56.232;43.854;2023-04-05T06:24:41;100957.78;;;13.47;44.60
73453;BME280;61687;56.232;43.854;2023-04-05T06:27:06;100952.28;;;13.47;44.86
73453;BME280;61687;56.232;43.854;2023-04-05T06:29:32;100958.16;;;13.45;44.44
73453;BME280;61687;56.232;43.854;2023-04-05T06:31:58;100966.47;;;13.49;44.43
73453;BME280;61687;56.232;43.854;2023-04-05T06:34:24;100967.16;;;13.69;44.24
73453;BME280;61687;56.232;43.854;2023-04-05T06:36:50;100967.00;;;13.89;44.01
73453;BME280;61687;56.232;43.854;2023-04-05T06:39:16;100970.28;;;13.98;43.47
73453;BME280;61687;56.232;43.854;2023-04-05T06:41:42;100969.31;;;13.83;43.09
73453;BME280;61687;56.232;43.854;2023-04-05T06:44:07;100963.78;;;13.83;43.59
73453;BME280;61687;56.232;43.854;2023-04-05T06:46:33;100964.06;;;14.05;43.51
73453;BME280;61687;56.232;43.854;2023-04-05T06:48:59;100966.25;;;14.26;43.26
73453;BME280;61687;56.232;43.854;2023-04-05T06:51:25;100958.22;;;14.48;42.85
73453;BME280;61687;56.232;43.854;2023-04-05T06:53:54;100961.59;;;14.68;42.72
73453;BME280;61687;56.232;43.854;2023-04-05T06:56:20;100963.69;;;14.82;42.37
73453;BME280;61687;56.232;43.854;2023-04-05T06:58:46;100972.81;;;14.86;41.83
73453;BME280;61687;56.232;43.854;2023-04-05T07:01:12;100963.41;;;14.95;41.80
73453;BME280;61687;56.232;43.854;2023-04-05T07:03:39;100965.03;;;14.99;41.73
73453;BME280;61687;56.232;43.854;2023-04-05T07:06:05;100961.75;;;14.86;41.49
73453;BME280;61687;56.232;43.854;2023-04-05T07:08:34;100959.53;;;15.03;41.43
73453;BME280;61687;56.232;43.854;2023-04-05T07:11:00;100964.31;;;15.10;41.30
73453;BME280;61687;56.232;43.854;2023-04-05T07:13:26;100965.59;;;15.23;41.33
73453;BME280;61687;56.232;43.854;2023-04-05T07:15:59;100960.59;;;15.40;41.43
73453;BME280;61687;56.232;43.854;2023-04-05T07:18:26;100948.00;;;15.50;41.12
73453;BME280;61687;56.232;43.854;2023-04-05T07:20:51;100963.03;;;15.52;40.73
73453;BME280;61687;56.232;43.854;2023-04-05T07:23:25;100959.13;;;15.60;40.76
73453;BME280;61687;56.232;43.854;2023-04-05T07:25:53;100957.97;;;15.65;40.90
73453;BME280;61687;56.232;43.854;2023-04-05T07:28:19;100954.47;;;15.72;40.84
73453;BME280;61687;56.232;43.854;2023-04-05T07:30:44;100956.34;;;15.57;40.21
73453;BME280;61687;56.232;43.854;2023-04-05T07:33:10;100957.50;;;15.52;40.44
73453;BME280;61687;56.232;43.854;2023-04-05T07:35:37;100965.25;;;15.28;40.50
73453;BME280;61687;56.232;43.854;2023-04-05T07:38:03;100964.03;;;15.26;40.83
73453;BME280;61687;56.232;43.854;2023-04-05T07:40:29;100963.72;;;15.38;40.78
73453;BME280;61687;56.232;43.854;2023-04-05T07:42:55;100965.03;;;15.55;40.64
73453;BME280;61687;56.232;43.854;2023-04-05T07:45:21;100963.50;;;15.65;40.61
73453;BME280;61687;56.232;43.854;2023-04-05T07:47:47;100968.25;;;15.68;40.42
73453;BME280;61687;56.232;43.854;2023-04-05T07:50:12;100965.09;;;15.70;40.70
73453;BME280;61687;56.232;43.854;2023-04-05T07:52:40;100967.09;;;15.73;40.28
73453;BME280;61687;56.232;43.854;2023-04-05T07:55:07;100960.38;;;15.78;40.13
73453;BME280;61687;56.232;43.854;2023-04-05T07:57:33;100967.22;;;15.95;40.67
73453;BME280;61687;56.232;43.854;2023-04-05T08:00:00;100959.38;;;16.11;40.13
73453;BME280;61687;56.232;43.854;2023-04-05T08:02:26;100968.84;;;16.10;40.12
73453;BME280;61687;56.232;43.854;2023-04-05T08:04:51;100963.34;;;16.14;40.24
73453;BME280;61687;56.232;43.854;2023-04-05T08:07:17;100958.69;;;16.36;40.49
73453;BME280;61687;56.232;43.854;2023-04-05T08:09:43;100967.00;;;16.62;40.05
73453;BME280;61687;56.232;43.854;2023-04-05T08:12:09;100961.88;;;16.78;39.77
73453;BME280;61687;56.232;43.854;2023-04-05T08:14:36;100960.69;;;16.86;39.15
73453;BME280;61687;56.232;43.854;2023-04-05T08:17:03;100965.84;;;16.88;39.22
73453;BME280;61687;56.232;43.854;2023-04-05T08:19:29;100959.16;;;17.00;39.43
73453;BME280;61687;56.232;43.854;2023-04-05T08:21:56;100960.72;;;16.94;38.83
73453;BME280;61687;56.232;43.854;2023-04-05T08:24:22;100959.56;;;16.98;39.06
73453;BME280;61687;56.232;43.854;2023-04-05T08:26:49;100958.34;;;17.14;39.50
73453;BME280;61687;56.232;43.854;2023-04-05T08:29:16;100959.91;;;17.26;39.40
73453;BME280;61687;56.232;43.854;2023-04-05T08:31:42;100952.81;;;17.17;38.84
73453;BME280;61687;56.232;43.854;2023-04-05T08:34:08;100957.16;;;17.15;38.88
73453;BME280;61687;56.232;43.854;2023-04-05T08:36:34;100954.00;;;17.27;38.84
73453;BME280;61687;56.232;43.854;2023-04-05T08:39:00;100954.78;;;17.35;38.66
73453;BME280;61687;56.232;43.854;2023-04-05T08:41:34;100954.34;;;17.55;38.50
73453;BME280;61687;56.232;43.854;2023-04-05T08:44:02;100950.34;;;17.63;38.18
73453;BME280;61687;56.232;43.854;2023-04-05T08:46:32;100951.91;;;17.68;38.19
73453;BME280;61687;56.232;43.854;2023-04-05T08:48:59;100948.31;;;17.82;38.54
73453;BME280;61687;56.232;43.854;2023-04-05T08:51:28;100951.81;;;17.97;38.45
73453;BME280;61687;56.232;43.854;2023-04-05T08:53:55;100946.63;;;17.99;37.79
73453;BME280;61687;56.232;43.854;2023-04-05T08:56:26;100950.63;;;18.01;37.55
73453;BME280;61687;56.232;43.854;2023-04-05T08:59:05;100953.41;;;17.94;37.65
73453;BME280;61687;56.232;43.854;2023-04-05T09:01:35;100956.97;;;17.95;37.62
73453;BME280;61687;56.232;43.854;2023-04-05T09:04:06;100955.78;;;17.92;37.61
73453;BME280;61687;56.232;43.854;2023-04-05T09:06:35;100961.72;;;18.01;37.79
73453;BME280;61687;56.232;43.854;2023-04-05T09:09:05;100955.75;;;17.99;37.60
73453;BME280;61687;56.232;43.854;2023-04-05T09:11:32;100961.78;;;17.83;36.92
73453;BME280;61687;56.232;43.854;2023-04-05T09:13:58;100962.56;;;17.87;37.38
73453;BME280;61687;56.232;43.854;2023-04-05T09:16:24;100959.34;;;18.04;37.49
73453;BME280;61687;56.232;43.854;2023-04-05T09:18:51;100964.91;;;17.93;37.26
73453;BME280;61687;56.232;43.854;2023-04-05T09:21:17;100959.34;;;17.93;37.33
73453;BME280;61687;56.232;43.854;2023-04-05T09:23:51;100968.84;;;17.95;36.96
73453;BME280;61687;56.232;43.854;2023-04-05T09:26:23;100975.59;;;18.01;37.32
73453;BME280;61687;56.232;43.854;2023-04-05T09:28:53;100965.66;;;17.93;36.31
73453;BME280;61687;56.232;43.854;2023-04-05T09:31:35;100963.28;;;17.99;36.01
73453;BME280;61687;56.232;43.854;2023-04-05T09:34:06;100971.56;;;18.10;36.01
73453;BME280;61687;56.232;43.854;2023-04-05T09:36:33;100969.16;;;18.19;35.95
73453;BME280;61687;56.232;43.854;2023-04-05T09:39:07;100960.03;;;18.22;36.47
73453;BME280;61687;56.232;43.854;2023-04-05T09:41:34;100972.72;;;18.23;36.40
73453;BME280;61687;56.232;43.854;2023-04-05T09:44:00;100962.00;;;18.29;36.27
73453;BME280;61687;56.232;43.854;2023-04-05T09:46:32;100969.56;;;18.21;36.04
73453;BME280;61687;56.232;43.854;2023-04-05T09:48:59;100962.00;;;18.25;36.31
73453;BME280;61687;56.232;43.854;2023-04-05T09:51:36;100968.72;;;18.28;35.77
73453;BME280;61687;56.232;43.854;2023-04-05T09:54:06;100963.25;;;18.17;36.22
73453;BME280;61687;56.232;43.854;2023-04-05T09:56:36;100968.69;;;18.31;36.31
73453;BME280;61687;56.232;43.854;2023-04-05T09:59:06;100960.00;;;18.29;36.28
73453;BME280;61687;56.232;43.854;2023-04-05T10:01:32;100970.28;;;18.33;35.60
73453;BME280;61687;56.232;43.854;2023-04-05T10:03:59;100965.38;;;18.58;35.83
73453;BME280;61687;56.232;43.854;2023-04-05T10:06:41;100964.34;;;18.91;34.97
73453;BME280;61687;56.232;43.854;2023-04-05T10:09:09;100963.56;;;19.36;34.73
73453;BME280;61687;56.232;43.854;2023-04-05T10:11:38;100969.25;;;19.25;34.02
73453;BME280;61687;56.232;43.854;2023-04-05T10:14:07;100960.63;;;19.12;34.99
73453;BME280;61687;56.232;43.854;2023-04-05T10:16:43;100965.03;;;19.48;34.71
73453;BME280;61687;56.232;43.854;2023-04-05T10:19:19;100967.47;;;19.80;33.62
73453;BME280;61687;56.232;43.854;2023-04-05T10:21:49;100959.16;;;20.66;32.54
73453;BME280;61687;56.232;43.854;2023-04-05T10:24:39;100961.00;;;21.68;31.62
73453;BME280;61687;56.232;43.854;2023-04-05T10:27:18;100961.06;;;23.08;29.94
73453;BME280;61687;56.232;43.854;2023-04-05T10:30:01;100964.50;;;24.56;28.52
73453;BME280;61687;56.232;43.854;2023-04-05T10:35:25;100961.25;;;25.41;26.65
73453;BME280;61687;56.232;43.854;2023-04-05T10:40:22;100949.88;;;24.75;27.27
73453;BME280;61687;56.232;43.854;2023-04-05T10:42:50;100968.91;;;23.89;27.47
73453;BME280;61687;56.232;43.854;2023-04-05T10:45:17;100959.94;;;23.06;29.19
73453;BME280;61687;56.232;43.854;2023-04-05T10:47:53;100959.78;;;22.80;28.80
73453;BME280;61687;56.232;43.854;2023-04-05T10:50:23;100960.16;;;22.28;29.59
73453;BME280;61687;56.232;43.854;2023-04-05T10:52:51;100955.50;;;21.41;30.98
73453;BME280;61687;56.232;43.854;2023-04-05T10:55:18;100959.19;;;21.58;30.92
73453;BME280;61687;56.232;43.854;2023-04-05T10:57:46;100959.72;;;21.73;30.94
73453;BME280;61687;56.232;43.854;2023-04-05T11:00:14;100953.13;;;21.63;30.87
73453;BME280;61687;56.232;43.854;2023-04-05T11:02:41;100958.31;;;21.65;30.59
73453;BME280;61687;56.232;43.854;2023-04-05T11:05:28;100960.69;;;21.63;30.15
73453;BME280;61687;56.232;43.854;2023-04-05T11:07:59;100956.19;;;22.79;28.57
73453;BME280;61687;56.232;43.854;2023-04-05T11:10:26;100966.81;;;23.18;28.10
73453;BME280;61687;56.232;43.854;2023-04-05T11:13:01;100966.81;;;23.18;27.84
73453;BME280;61687;56.232;43.854;2023-04-05T11:15:29;100974.28;;;23.96;26.99
73453;BME280;61687;56.232;43.854;2023-04-05T11:18:20;100964.88;;;25.07;26.02
73453;BME280;61687;56.232;43.854;2023-04-05T11:23:18;100962.50;;;25.05;25.49
73453;BME280;61687;56.232;43.854;2023-04-05T11:25:49;100969.53;;;24.23;26.12
73453;BME280;61687;56.232;43.854;2023-04-05T11:28:23;100971.94;;;23.65;26.75
73453;BME280;61687;56.232;43.854;2023-04-05T11:30:50;100970.47;;;23.48;26.93
73453;BME280;61687;56.232;43.854;2023-04-05T11:33:36;100964.41;;;23.49;26.84
73453;BME280;61687;56.232;43.854;2023-04-05T11:36:03;100970.00;;;22.86;27.58
73453;BME280;61687;56.232;43.854;2023-04-05T11:38:29;100960.31;;;22.58;27.95
73453;BME280;61687;56.232;43.854;2023-04-05T11:41:16;100961.50;;;23.07;27.54
73453;BME280;61687;56.232;43.854;2023-04-05T11:43:43;100959.59;;;23.79;27.02
73453;BME280;61687;56.232;43.854;2023-04-05T11:46:09;100958.44;;;24.45;26.20
73453;BME280;61687;56.232;43.854;2023-04-05T11:48:35;100964.03;;;24.19;25.66
73453;BME280;61687;56.232;43.854;2023-04-05T11:51:07;100964.03;;;24.19;25.74
73453;BME280;61687;56.232;43.854;2023-04-05T11:53:35;100958.75;;;24.47;25.47
73453;BME280;61687;56.232;43.854;2023-04-05T11:56:10;100966.16;;;24.54;25.13
73453;BME280;61687;56.232;43.854;2023-04-05T11:58:38;100961.34;;;24.28;25.15
73453;BME280;61687;56.232;43.854;2023-04-05T12:01:05;100959.75;;;24.01;25.40
73453;BME280;61687;56.232;43.854;2023-04-05T12:03:32;100956.63;;;23.70;25.57
73453;BME280;61687;56.232;43.854;2023-04-05T12:06:03;100955.38;;;23.58;25.91
73453;BME280;61687;56.232;43.854;2023-04-05T12:08:56;100952.84;;;23.01;27.20
73453;BME280;61687;56.232;43.854;2023-04-05T12:11:26;100955.13;;;23.06;26.57
73453;BME280;61687;56.232;43.854;2023-04-05T12:13:58;100947.28;;;22.51;27.24
73453;BME280;61687;56.232;43.854;2023-04-05T12:16:24;100946.50;;;22.14;27.71
73453;BME280;61687;56.232;43.854;2023-04-05T12:18:57;100947.66;;;22.16;28.03
73453;BME280;61687;56.232;43.854;2023-04-05T12:21:24;100948.31;;;22.41;27.31
73453;BME280;61687;56.232;43.854;2023-04-05T12:23:51;100944.78;;;22.20;27.39
73453;BME280;61687;56.232;43.854;2023-04-05T12:26:18;100940.50;;;22.15;27.50
73453;BME280;61687;56.232;43.854;2023-04-05T12:28:55;100936.72;;;22.59;28.00
73453;BME280;61687;56.232;43.854;2023-04-05T12:31:38;100948.59;;;22.80;27.31
73453;BME280;61687;56.232;43.854;2023-04-05T12:34:04;100955.06;;;22.60;27.28
73453;BME280;61687;56.232;43.854;2023-04-05T12:36:30;100947.88;;;22.06;28.05
73453;BME280;61687;56.232;43.854;2023-04-05T12:38:57;100939.97;;;22.74;27.65
73453;BME280;61687;56.232;43.854;2023-04-05T12:41:30;100956.78;;;23.20;26.96
73453;BME280;61687;56.232;43.854;2023-04-05T12:43:56;100948.41;;;22.70;26.98
73453;BME280;61687;56.232;43.854;2023-04-05T12:46:38;100948.31;;;23.07;27.34
73453;BME280;61687;56.232;43.854;2023-04-05T12:49:11;100956.69;;;23.53;26.62
73453;BME280;61687;56.232;43.854;2023-04-05T12:51:44;100950.84;;;23.77;26.09
73453;BME280;61687;56.232;43.854;2023-04-05T12:54:19;100954.69;;;23.54;26.18
73453;BME280;61687;56.232;43.854;2023-04-05T12:56:49;100955.34;;;24.00;26.24
73453;BME280;61687;56.232;43.854;2023-04-05T12:59:15;100955.63;;;24.06;25.70
73453;BME280;61687;56.232;43.854;2023-04-05T13:01:41;100955.28;;;24.43;25.88
73453;BME280;61687;56.232;43.854;2023-04-05T13:04:07;100953.63;;;25.20;24.59
73453;BME280;61687;56.232;43.854;2023-04-05T13:06:32;100949.78;;;25.26;24.57
73453;BME280;61687;56.232;43.854;2023-04-05T13:08:58;100950.13;;;24.80;25.05
73453;BME280;61687;56.232;43.854;2023-04-05T13:11:24;100966.63;;;24.78;25.24